createdAt,value
2022-11-08T00:00:41.729Z,95137.78
2022-11-08T00:03:09.124Z,95132.13
2022-11-08T00:05:54.978Z,95125.75
2022-11-08T00:08:40.901Z,95126.78
2022-11-08T00:11:27.061Z,95136.66
2022-11-08T00:13:57.250Z,95133.16
2022-11-08T00:16:25.558Z,95131.59
2022-11-08T00:18:52.780Z,95130.50
2022-11-08T00:21:20.352Z,95126.25
2022-11-08T00:23:48.050Z,95126.00
2022-11-08T00:26:15.185Z,95123.34
2022-11-08T00:28:42.243Z,95121.97
2022-11-08T00:31:09.601Z,95117.69
2022-11-08T00:33:37.671Z,95122.50
2022-11-08T00:36:05.530Z,95118.78
2022-11-08T00:38:33.029Z,95125.44
2022-11-08T00:41:00.496Z,95122.78
2022-11-08T00:43:27.921Z,95130.75
2022-11-08T00:45:55.058Z,95127.31
2022-11-08T00:48:22.466Z,95130.75
2022-11-08T00:50:49.607Z,95129.97
2022-11-08T00:53:16.944Z,95118.75
2022-11-08T00:55:44.155Z,95132.13
2022-11-08T00:58:11.116Z,95127.06
2022-11-08T01:00:38.410Z,95128.09
2022-11-08T01:03:20.838Z,95128.91
2022-11-08T01:05:49.100Z,95128.34
2022-11-08T01:08:18.065Z,95123.03
2022-11-08T01:10:49.972Z,95123.81
2022-11-08T01:13:19.018Z,95116.88
2022-11-08T01:15:47.184Z,95117.13
2022-11-08T01:18:17.076Z,95109.97
2022-11-08T01:20:47.568Z,95115.28
2022-11-08T01:23:16.053Z,95112.63
2022-11-08T01:25:46.444Z,95109.97
2022-11-08T01:28:14.066Z,95100.63
2022-11-08T01:30:44.120Z,95100.63
2022-11-08T01:33:12.758Z,95102.72
2022-11-08T01:35:41.153Z,95103.81
2022-11-08T01:38:09.838Z,95099.53
2022-11-08T01:40:46.896Z,95095.28
2022-11-08T01:43:35.443Z,95092.06
2022-11-08T01:46:34.748Z,95088.56
2022-11-08T01:49:35.540Z,95085.38
2022-11-08T01:52:47.664Z,95082.41
2022-11-08T01:55:22.855Z,95077.84
2022-11-08T01:58:18.041Z,95078.13
2022-11-08T02:00:45.607Z,95072.78
2022-11-08T02:03:16.974Z,95075.44
2022-11-08T02:05:45.066Z,95070.13
2022-11-08T02:08:36.483Z,95061.03
2022-11-08T02:11:05.805Z,95072.78
2022-11-08T02:13:36.492Z,95078.13
2022-11-08T02:16:09.695Z,95077.84
2022-11-08T02:18:37.037Z,95061.31
2022-11-08T02:21:32.620Z,95064.78
2022-11-08T02:24:03.436Z,95064.78
2022-11-08T02:26:33.616Z,95065.59
2022-11-08T02:29:35.278Z,95057.53
2022-11-08T02:32:04.597Z,95052.22
2022-11-08T02:34:45.324Z,95051.72
2022-11-08T02:37:17.072Z,95039.91
2022-11-08T02:39:44.327Z,95047.16
2022-11-08T02:42:18.726Z,95054.41
2022-11-08T02:44:47.572Z,95054.63
2022-11-08T02:47:15.307Z,95050.13
2022-11-08T02:49:43.076Z,95050.13
2022-11-08T02:52:10.793Z,95049.56
2022-11-08T02:54:38.144Z,95047.19
2022-11-08T02:57:05.635Z,95044.78
2022-11-08T02:59:32.698Z,95034.38
2022-11-08T03:02:00.177Z,95033.56
2022-11-08T03:04:27.982Z,95032.25
2022-11-08T03:06:55.208Z,95028.50
2022-11-08T03:09:22.335Z,95033.31
2022-11-08T03:11:49.568Z,95035.19
2022-11-08T03:14:16.703Z,95038.63
2022-11-08T03:16:43.830Z,95018.31
2022-11-08T03:19:14.274Z,95027.69
2022-11-08T03:21:41.463Z,95019.94
2022-11-08T03:24:09.284Z,95021.28
2022-11-08T03:26:36.359Z,95022.34
2022-11-08T03:29:03.693Z,95023.16
2022-11-08T03:31:30.963Z,95008.72
2022-11-08T03:33:58.085Z,95022.59
2022-11-08T03:36:25.561Z,95025.00
2022-11-08T03:38:52.887Z,95015.66
2022-11-08T03:41:20.614Z,95023.66
2022-11-08T03:43:48.113Z,95026.88
2022-11-08T03:46:15.460Z,95019.94
2022-11-08T03:48:42.815Z,95029.81
2022-11-08T03:51:10.126Z,95019.38
2022-11-08T03:53:37.378Z,95020.19
2022-11-08T03:56:04.998Z,95021.81
2022-11-08T03:58:32.184Z,95012.97
2022-11-08T04:01:04.708Z,95022.31
2022-11-08T04:03:32.338Z,95015.63
2022-11-08T04:06:03.863Z,95019.38
2022-11-08T04:08:31.439Z,95030.84
2022-11-08T04:11:22.594Z,95028.44
2022-11-08T04:14:08.416Z,95022.75
2022-11-08T04:16:35.613Z,95027.06
2022-11-08T04:19:21.434Z,95025.97
2022-11-08T04:21:51.676Z,95023.88
2022-11-08T04:24:19.101Z,95025.47
2022-11-08T04:26:46.245Z,95012.09
2022-11-08T04:29:14.035Z,95013.16
2022-11-08T04:31:41.684Z,95019.34
2022-11-08T04:34:08.752Z,95013.22
2022-11-08T04:36:36.192Z,95010.00
2022-11-08T04:41:30.937Z,95010.25
2022-11-08T04:43:59.349Z,94992.59
2022-11-08T04:46:29.004Z,95010.00
2022-11-08T04:48:59.275Z,94999.34
2022-11-08T04:51:32.469Z,95005.97
2022-11-08T04:54:01.716Z,95000.09
2022-11-08T04:56:30.748Z,95011.28
2022-11-08T04:59:00.840Z,95007.53
2022-11-08T05:01:31.251Z,95014.75
2022-11-08T05:03:58.616Z,94998.97
2022-11-08T05:06:31.711Z,94995.53
2022-11-08T05:08:59.984Z,95002.25
2022-11-08T05:11:29.974Z,95002.50
2022-11-08T05:13:57.781Z,95010.50
2022-11-08T05:16:32.342Z,95004.34
2022-11-08T05:18:59.815Z,94997.41
2022-11-08T05:21:46.676Z,94998.25
2022-11-08T05:24:18.125Z,95000.34
2022-11-08T05:26:48.413Z,95004.88
2022-11-08T05:29:16.634Z,95005.66
2022-11-08T05:31:43.826Z,95013.66
2022-11-08T05:34:11.071Z,95016.31
2022-11-08T05:36:38.294Z,95008.59
2022-11-08T05:39:05.550Z,95015.53
2022-11-08T05:41:34.742Z,95009.38
2022-11-08T05:44:02.154Z,95005.09
2022-11-08T05:46:29.293Z,95010.44
2022-11-08T05:48:56.762Z,95010.44
2022-11-08T05:51:23.910Z,95011.50
2022-11-08T05:53:51.042Z,95014.91
2022-11-08T05:56:18.837Z,95012.56
2022-11-08T05:58:46.767Z,95012.31
2022-11-08T06:01:17.646Z,95002.69
2022-11-08T06:03:45.500Z,95004.56
2022-11-08T06:06:21.029Z,95003.53
2022-11-08T06:08:51.483Z,95007.22
2022-11-08T06:11:26.141Z,95008.28
2022-11-08T06:13:54.949Z,95005.88
2022-11-08T06:16:24.108Z,95002.97
2022-11-08T06:18:51.229Z,95001.34
2022-11-08T06:21:20.634Z,95001.91
2022-11-08T06:23:48.242Z,95007.72
2022-11-08T06:26:15.432Z,95004.00
2022-11-08T06:28:42.847Z,95009.34
2022-11-08T06:31:10.142Z,95012.56
2022-11-08T06:33:37.431Z,95009.34
2022-11-08T06:36:06.124Z,95016.28
2022-11-08T06:38:33.600Z,95010.13
2022-11-08T06:41:02.174Z,95020.78
2022-11-08T06:43:29.592Z,95025.06
2022-11-08T06:46:02.158Z,95013.31
2022-11-08T06:48:35.007Z,95024.25
2022-11-08T06:51:03.909Z,95023.22
2022-11-08T06:53:31.735Z,95020.56
2022-11-08T06:56:02.817Z,95015.72
2022-11-08T06:58:31.389Z,95024.00
2022-11-08T07:00:58.664Z,95029.84
2022-11-08T07:03:26.201Z,95031.75
2022-11-08T07:05:53.518Z,95035.47
2022-11-08T07:08:23.719Z,95040.56
2022-11-08T07:10:51.801Z,95047.50
2022-11-08T07:13:19.497Z,95043.22
2022-11-08T07:15:48.073Z,95041.91
2022-11-08T07:18:17.326Z,95038.97
2022-11-08T07:20:44.755Z,95046.19
2022-11-08T07:23:12.628Z,95034.97
2022-11-08T07:25:39.837Z,95046.50
2022-11-08T07:28:14.125Z,95045.66
2022-11-08T07:33:08.315Z,95038.50
2022-11-08T07:35:35.844Z,95044.13
2022-11-08T07:38:03.090Z,95035.06
2022-11-08T07:40:30.512Z,95043.06
2022-11-08T07:43:16.490Z,95042.81
2022-11-08T07:45:44.289Z,95046.28
2022-11-08T07:48:13.944Z,95040.94
2022-11-08T07:50:42.844Z,95022.25
2022-11-08T07:53:11.176Z,95037.25
2022-11-08T07:55:39.898Z,95033.78
2022-11-08T07:58:10.171Z,95038.84
2022-11-08T08:00:40.511Z,95030.03
2022-11-08T08:03:11.585Z,95034.09
2022-11-08T08:05:45.291Z,95039.41
2022-11-08T08:08:14.629Z,95028.75
2022-11-08T08:10:41.999Z,95034.63
2022-11-08T08:13:09.332Z,95032.50
2022-11-08T08:15:36.953Z,95032.25
2022-11-08T08:18:07.549Z,95026.41
2022-11-08T08:20:35.616Z,95027.97
2022-11-08T08:23:02.888Z,95022.66
2022-11-08T08:25:33.485Z,95011.69
2022-11-08T08:28:01.835Z,95018.63
2022-11-08T08:30:31.562Z,95023.78
2022-11-08T08:33:29.992Z,95023.78
2022-11-08T08:35:58.060Z,95017.63
2022-11-08T08:38:25.465Z,95018.44
2022-11-08T08:40:52.654Z,95013.13
2022-11-08T08:43:21.257Z,95013.91
2022-11-08T08:45:49.090Z,95019.81
2022-11-08T08:48:16.735Z,95020.59
2022-11-08T08:50:44.134Z,95023.25
2022-11-08T08:53:11.405Z,95030.19
2022-11-08T08:55:40.124Z,95037.94
2022-11-08T08:58:07.601Z,95040.38
2022-11-08T09:03:22.262Z,95044.88
2022-11-08T09:05:50.162Z,95031.31
2022-11-08T09:08:17.621Z,95028.66
2022-11-08T09:10:44.854Z,95030.25
2022-11-08T09:13:12.020Z,95030.81
2022-11-08T09:15:39.457Z,95028.94
2022-11-08T09:18:06.960Z,95021.75
2022-11-08T09:20:34.386Z,95030.53
2022-11-08T09:23:03.044Z,95023.59
2022-11-08T09:25:30.484Z,95020.16
2022-11-08T09:27:57.664Z,95022.06
2022-11-08T09:30:25.322Z,95008.38
2022-11-08T09:33:03.045Z,95026.34
2022-11-08T09:35:30.729Z,95007.91
2022-11-08T09:37:59.009Z,95019.94
2022-11-08T09:40:46.350Z,95019.94
2022-11-08T09:43:43.608Z,95015.91
2022-11-08T09:46:17.231Z,95011.94
2022-11-08T09:48:45.923Z,95010.03
2022-11-08T09:51:19.065Z,95007.41
2022-11-08T09:53:54.230Z,95018.06
2022-11-08T09:56:33.530Z,95006.63
2022-11-08T09:59:31.556Z,95005.00
2022-11-08T10:01:58.945Z,95000.19
2022-11-08T10:04:31.289Z,95002.69
2022-11-08T10:07:10.606Z,95007.19
2022-11-08T10:10:12.160Z,94993.06
2022-11-08T10:13:22.860Z,94989.81
2022-11-08T10:16:03.648Z,94989.56
2022-11-08T10:18:46.137Z,94982.63
2022-11-08T10:21:56.285Z,94983.69
2022-11-08T10:24:47.966Z,94985.78
2022-11-08T10:27:49.982Z,94988.72
2022-11-08T10:30:26.428Z,94981.03
2022-11-08T10:32:57.852Z,94978.34
2022-11-08T10:36:02.060Z,94985.06
2022-11-08T10:38:41.703Z,94986.69
2022-11-08T10:41:41.035Z,94987.72
2022-11-08T10:44:17.293Z,94985.88
2022-11-08T10:47:01.282Z,94981.34
2022-11-08T10:49:43.379Z,94978.69
2022-11-08T10:52:20.683Z,94974.16
2022-11-08T10:54:57.374Z,94966.16
2022-11-08T10:57:34.706Z,94962.44
2022-11-08T11:00:21.713Z,94965.09
2022-11-08T11:02:54.583Z,94966.72
2022-11-08T11:05:35.643Z,94964.84
2022-11-08T11:08:16.456Z,94955.00
2022-11-08T11:10:49.305Z,94959.25
2022-11-08T11:16:03.365Z,94952.06
2022-11-08T11:18:46.421Z,94952.84
2022-11-08T11:21:22.348Z,94951.81
2022-11-08T11:23:56.267Z,94944.63
2022-11-08T11:26:34.352Z,94938.47
2022-11-08T11:29:05.562Z,94933.16
2022-11-08T11:31:36.602Z,94932.34
2022-11-08T11:34:19.099Z,94932.09
2022-11-08T11:37:13.678Z,94928.88
2022-11-08T11:40:03.885Z,94925.91
2022-11-08T11:43:00.048Z,94925.66
2022-11-08T11:45:39.095Z,94925.41
2022-11-08T11:48:17.313Z,94916.59
2022-11-08T11:50:50.055Z,94921.91
2022-11-08T11:53:39.111Z,94926.47
2022-11-08T11:57:03.267Z,94925.91
2022-11-08T11:59:47.722Z,94932.59
2022-11-08T12:02:33.702Z,94928.34
2022-11-08T12:05:28.821Z,94921.13
2022-11-08T12:08:41.634Z,94915.25
2022-11-08T12:11:44.913Z,94911.00
2022-11-08T12:14:25.165Z,94912.84
2022-11-08T12:17:16.535Z,94909.91
2022-11-08T12:20:27.085Z,94895.25
2022-11-08T12:23:10.541Z,94900.34
2022-11-08T12:25:59.143Z,94903.78
2022-11-08T12:29:10.303Z,94896.84
2022-11-08T12:32:18.956Z,94902.19
2022-11-08T12:35:10.703Z,94897.91
2022-11-08T12:38:07.909Z,94895.25
2022-11-08T12:40:45.048Z,94903.00
2022-11-08T12:43:48.115Z,94902.19
2022-11-08T12:46:18.638Z,94895.00
2022-11-08T12:49:28.731Z,94894.44
2022-11-08T12:52:31.048Z,94895.78
2022-11-08T12:55:04.113Z,94892.06
2022-11-08T12:57:32.153Z,94887.53
2022-11-08T13:00:18.180Z,94890.47
2022-11-08T13:03:11.403Z,94886.75
2022-11-08T13:05:52.642Z,94889.94
2022-11-08T13:08:38.196Z,94886.47
2022-11-08T13:11:21.689Z,94889.69
2022-11-08T13:13:57.301Z,94885.16
2022-11-08T13:16:27.233Z,94881.72
2022-11-08T13:19:01.354Z,94882.22
2022-11-08T13:21:28.484Z,94884.66
2022-11-08T13:24:43.309Z,94875.84
2022-11-08T13:27:39.244Z,94880.88
2022-11-08T13:30:13.998Z,94885.72
2022-11-08T13:32:45.189Z,94889.16
2022-11-08T13:35:32.042Z,94886.50
2022-11-08T13:38:02.232Z,94874.78
2022-11-08T13:40:32.681Z,94883.59
2022-11-08T13:43:27.562Z,94887.31
2022-11-08T13:45:55.357Z,94880.94
2022-11-08T13:48:26.204Z,94875.59
2022-11-08T13:51:18.964Z,94879.84
2022-11-08T13:53:54.848Z,94877.19
2022-11-08T13:56:46.059Z,94888.66
2022-11-08T13:59:32.221Z,94883.06
2022-11-08T14:02:01.155Z,94882.00
2022-11-08T14:04:33.884Z,94887.06
2022-11-08T14:07:13.879Z,94879.34
2022-11-08T14:10:08.187Z,94878.50
2022-11-08T14:12:56.771Z,94878.50
2022-11-08T14:15:37.038Z,94882.78
2022-11-08T14:18:30.068Z,94884.09
2022-11-08T14:20:58.000Z,94880.66
2022-11-08T14:23:39.570Z,94872.88
2022-11-08T14:26:13.877Z,94886.78
2022-11-08T14:28:44.490Z,94876.88
2022-11-08T14:31:34.537Z,94884.88
2022-11-08T14:34:02.586Z,94886.78
2022-11-08T14:36:31.896Z,94891.03
2022-11-08T14:39:16.733Z,94889.44
2022-11-08T14:41:55.527Z,94883.31
2022-11-08T14:44:24.087Z,94877.16
2022-11-08T14:46:52.415Z,94883.06
2022-11-08T14:49:23.347Z,94892.91
2022-11-08T14:52:12.556Z,94893.16
2022-11-08T14:54:44.490Z,94892.38
2022-11-08T14:57:44.921Z,94895.28
2022-11-08T15:00:28.548Z,94892.59
2022-11-08T15:03:04.422Z,94884.88
2022-11-08T15:05:38.911Z,94889.16
2022-11-08T15:08:20.381Z,94893.69
2022-11-08T15:11:09.649Z,94882.72
2022-11-08T15:13:50.543Z,94898.19
2022-11-08T15:16:19.139Z,94897.41
2022-11-08T15:18:47.047Z,94897.41
2022-11-08T15:21:31.333Z,94895.78
2022-11-08T15:24:14.549Z,94896.59
2022-11-08T15:27:04.983Z,94892.03
2022-11-08T15:30:01.370Z,94897.13
2022-11-08T15:32:36.977Z,94897.91
2022-11-08T15:35:07.329Z,94896.84
2022-11-08T15:37:38.883Z,94903.22
2022-11-08T15:40:28.519Z,94904.78
2022-11-08T15:42:56.077Z,94885.53
2022-11-08T15:45:32.231Z,94909.59
2022-11-08T15:48:09.107Z,94910.44
2022-11-08T15:50:36.592Z,94899.47
2022-11-08T15:53:04.986Z,94905.91
2022-11-08T15:55:43.195Z,94901.41
2022-11-08T15:58:23.069Z,94892.25
2022-11-08T16:00:50.605Z,94901.84
2022-11-08T16:03:18.057Z,94899.78
2022-11-08T16:05:45.680Z,94892.81
2022-11-08T16:08:18.626Z,94900.81
2022-11-08T16:10:53.259Z,94904.25
2022-11-08T16:13:29.882Z,94897.28
2022-11-08T16:15:57.963Z,94897.59
2022-11-08T16:18:25.663Z,94904.53
2022-11-08T16:20:53.043Z,94893.06
2022-11-08T16:23:20.300Z,94886.09
2022-11-08T16:25:51.565Z,94894.91
2022-11-08T16:28:38.756Z,94885.31
2022-11-08T16:31:10.134Z,94887.19
2022-11-08T16:33:37.469Z,94889.84
2022-11-08T16:36:18.036Z,94894.38
2022-11-08T16:38:53.995Z,94901.31
2022-11-08T16:41:23.426Z,94893.84
2022-11-08T16:43:51.384Z,94896.25
2022-11-08T16:46:21.292Z,94906.91
2022-11-08T16:48:57.459Z,94906.09
2022-11-08T16:51:27.566Z,94903.69
2022-11-08T16:53:54.775Z,94901.81
2022-11-08T16:56:22.268Z,94913.53
2022-11-08T16:58:49.966Z,94918.88
2022-11-08T17:01:22.644Z,94919.94
2022-11-08T17:03:49.733Z,94917.00
2022-11-08T17:06:18.652Z,94923.16
2022-11-08T17:08:46.712Z,94916.22
2022-11-08T17:11:20.878Z,94914.34
2022-11-08T17:13:48.667Z,94908.47
2022-11-08T17:16:16.834Z,94908.47
2022-11-08T17:18:47.448Z,94910.09
2022-11-08T17:21:43.002Z,94910.09
2022-11-08T17:24:04.615Z,94898.88
2022-11-08T17:26:31.863Z,94900.75
2022-11-08T17:28:59.107Z,94899.94
2022-11-08T17:31:26.301Z,94904.47
2022-11-08T17:33:55.969Z,94890.56
2022-11-08T17:36:23.542Z,94895.91
2022-11-08T17:38:50.837Z,94891.13
2022-11-08T17:41:18.264Z,94886.88
2022-11-08T17:43:45.416Z,94891.13
2022-11-08T17:46:13.150Z,94892.19
2022-11-08T17:48:41.464Z,94885.25
2022-11-08T17:51:09.452Z,94879.38
2022-11-08T17:53:37.221Z,94883.63
2022-11-08T17:56:06.274Z,94890.59
2022-11-08T17:58:34.656Z,94896.19
2022-11-08T18:01:05.962Z,94896.97
2022-11-08T18:03:34.284Z,94895.34
2022-11-08T18:06:11.903Z,94900.69
2022-11-08T18:08:39.166Z,94891.59
2022-11-08T18:11:06.628Z,94892.94
2022-11-08T18:13:35.232Z,94893.75
2022-11-08T18:16:14.748Z,94895.63
2022-11-08T18:18:42.774Z,94902.00
2022-11-08T18:21:10.907Z,94910.00
2022-11-08T18:23:45.103Z,94910.00
2022-11-08T18:26:14.172Z,94901.22
2022-11-08T18:28:42.750Z,94895.84
2022-11-08T18:31:17.253Z,94891.59
2022-11-08T18:33:45.000Z,94891.59
2022-11-08T18:36:22.811Z,94884.66
2022-11-08T18:38:51.396Z,94888.13
2022-11-08T18:41:31.793Z,94892.09
2022-11-08T18:44:01.070Z,94889.13
2022-11-08T18:46:34.309Z,94900.66
2022-11-08T18:49:07.311Z,94891.03
2022-11-08T18:51:34.554Z,94897.44
2022-11-08T18:54:01.674Z,94889.97
2022-11-08T18:56:28.789Z,94897.69
2022-11-08T18:58:56.124Z,94902.75
2022-11-08T19:01:23.252Z,94899.31
2022-11-08T19:03:50.736Z,94897.94
2022-11-08T19:06:19.520Z,94892.63
2022-11-08T19:08:46.779Z,94889.69
2022-11-08T19:11:15.326Z,94889.13
2022-11-08T19:13:42.769Z,94891.56
2022-11-08T19:16:16.246Z,94894.25
2022-11-08T19:18:45.854Z,94895.28
2022-11-08T19:21:19.145Z,94889.97
2022-11-08T19:23:47.459Z,94897.13
2022-11-08T19:26:23.796Z,94893.09
2022-11-08T19:28:53.962Z,94893.94
2022-11-08T19:31:24.577Z,94893.94
2022-11-08T19:33:53.508Z,94900.88
2022-11-08T19:36:24.586Z,94895.00
2022-11-08T19:38:54.806Z,94893.94
2022-11-08T19:41:25.415Z,94895.50
2022-11-08T19:43:52.830Z,94902.97
2022-11-08T19:46:23.845Z,94909.38
2022-11-08T19:48:52.263Z,94904.03
2022-11-08T19:51:31.617Z,94907.75
2022-11-08T19:54:05.757Z,94896.50
2022-11-08T19:57:02.593Z,94906.13
2022-11-08T19:59:21.352Z,94914.13
2022-11-08T20:01:48.480Z,94907.72
2022-11-08T20:04:18.682Z,94916.78
2022-11-08T20:06:46.519Z,94918.41
2022-11-08T20:09:13.902Z,94908.81
2022-11-08T20:11:42.528Z,94908.81
2022-11-08T20:14:13.213Z,94916.00
2022-11-08T20:16:44.988Z,94909.06
2022-11-08T20:19:16.840Z,94909.84
2022-11-08T20:21:46.249Z,94917.84
2022-11-08T20:24:14.901Z,94912.53
2022-11-08T20:26:43.533Z,94906.66
2022-11-08T20:29:11.238Z,94902.09
2022-11-08T20:31:39.161Z,94906.66
2022-11-08T20:34:09.871Z,94912.78
2022-11-08T20:36:37.965Z,94910.94
2022-11-08T20:39:07.954Z,94909.81
2022-11-08T20:41:37.422Z,94921.03
2022-11-08T20:44:06.263Z,94911.41
2022-11-08T20:46:34.579Z,94918.63
2022-11-08T20:49:02.234Z,94927.97
2022-11-08T20:51:31.844Z,94908.16
2022-11-08T20:54:00.661Z,94927.41
2022-11-08T20:56:30.107Z,94926.63
2022-11-08T20:58:57.972Z,94917.50
2022-11-08T21:01:29.200Z,94923.97
2022-11-08T21:03:56.892Z,94915.91
2022-11-08T21:06:26.622Z,94929.28
2022-11-08T21:08:59.916Z,94922.34
2022-11-08T21:11:30.519Z,94932.44
2022-11-08T21:13:58.197Z,94923.88
2022-11-08T21:16:46.895Z,94931.13
2022-11-08T21:19:12.508Z,94928.16
2022-11-08T21:21:39.670Z,94921.00
2022-11-08T21:24:07.626Z,94922.84
2022-11-08T21:26:36.795Z,94919.94
2022-11-08T21:29:06.053Z,94924.97
2022-11-08T21:31:34.251Z,94919.13
2022-11-08T21:34:01.497Z,94923.66
2022-11-08T21:36:29.521Z,94912.97
2022-11-08T21:38:56.795Z,94914.56
2022-11-08T21:41:24.106Z,94915.91
2022-11-08T21:43:51.235Z,94914.06
2022-11-08T21:46:22.370Z,94914.84
2022-11-08T21:48:55.908Z,94912.19
2022-11-08T21:51:23.553Z,94911.41
2022-11-08T21:53:56.118Z,94911.41
2022-11-08T21:56:25.696Z,94919.38
2022-11-08T21:58:53.174Z,94917.78
2022-11-08T22:01:25.419Z,94915.09
2022-11-08T22:03:55.870Z,94913.50
2022-11-08T22:06:22.882Z,94909.22
2022-11-08T22:08:50.077Z,94912.16
2022-11-08T22:11:18.705Z,94920.44
2022-11-08T22:13:46.439Z,94920.69
2022-11-08T22:16:13.662Z,94924.97
2022-11-08T22:21:41.398Z,94920.97
2022-11-08T22:24:18.239Z,94917.72
2022-11-08T22:26:46.235Z,94915.63
2022-11-08T22:29:14.203Z,94903.00
2022-11-08T22:31:42.479Z,94911.34
2022-11-08T22:34:10.849Z,94916.69
2022-11-08T22:36:44.446Z,94912.41
2022-11-08T22:39:15.298Z,94904.41
2022-11-08T22:41:44.138Z,94915.06
2022-11-08T22:44:12.738Z,94910.00
2022-11-08T22:46:42.235Z,94915.56
2022-11-08T22:49:10.478Z,94908.94
2022-11-08T22:51:38.326Z,94907.88
2022-11-08T22:54:05.755Z,94905.47
2022-11-08T22:56:33.104Z,94898.28
2022-11-08T22:59:00.092Z,94907.34
2022-11-08T23:01:27.297Z,94904.91
2022-11-08T23:03:54.292Z,94908.38
2022-11-08T23:06:21.512Z,94902.81
2022-11-08T23:08:48.992Z,94900.41
2022-11-08T23:11:35.287Z,94904.69
2022-11-08T23:14:21.243Z,94912.91
2022-11-08T23:16:48.213Z,94904.59
2022-11-08T23:19:40.207Z,94902.50
2022-11-08T23:22:32.015Z,94901.94
2022-11-08T23:24:59.507Z,94903.00
2022-11-08T23:27:46.508Z,94904.59
2022-11-08T23:30:34.782Z,94904.06
2022-11-08T23:33:03.407Z,94902.72
2022-11-08T23:35:30.472Z,94905.13
2022-11-08T23:37:57.902Z,94904.81
2022-11-08T23:40:43.757Z,94913.13
2022-11-08T23:43:37.384Z,94908.59
2022-11-08T23:46:12.410Z,94914.16
2022-11-08T23:48:40.743Z,94903.78
2022-11-08T23:51:08.319Z,94903.22
2022-11-08T23:53:37.473Z,94906.97
2022-11-08T23:56:05.571Z,94910.47
2022-11-08T23:58:33.270Z,94912.28
